Time;durP1;ratioP1;P1;durP2;ratioP2;P2;SDS_P1;SDS_P2;PMS_P1;PMS_P2;Temp;Humidity;BMP_temperature;BMP_pressure;BME280_temperature;BME280_humidity;BME280_pressure;Samples;Min_cycle;Max_cycle;Signal;HPM_P1;HPM_P2
2022/02/23 00:00:17;;;;;;;2.97;1.00;;;;;;;;;;5050322;28;20386;-72
2022/02/23 00:03:21;;;;;;;7.45;1.10;;;;;;;;;;5049727;28;20041;-72
2022/02/23 00:06:26;;;;;;;4.63;1.17;;;;;;;;;;5049632;28;20041;-72
2022/02/23 00:09:30;;;;;;;3.97;1.27;;;;;;;;;;5050531;28;20029;-73
2022/02/23 00:12:34;;;;;;;5.28;1.40;;;;;;;;;;5050206;28;20060;-71
2022/02/23 00:15:39;;;;;;;4.95;1.33;;;;;;;;;;5049529;28;20041;-71
2022/02/23 00:18:43;;;;;;;4.88;1.20;;;;;;;;;;5050170;28;20049;-70
2022/02/23 00:21:47;;;;;;;3.40;1.00;;;;;;;;;;5049463;28;20362;-70
2022/02/23 00:24:52;;;;;;;7.43;1.08;;;;;;;;;;5050128;28;20033;-71
2022/02/23 00:27:56;;;;;;;2.50;1.00;;;;;;;;;;5050219;28;20041;-72
2022/02/23 00:31:00;;;;;;;2.92;1.20;;;;;;;;;;5049301;28;20041;-72
2022/02/23 00:34:05;;;;;;;3.17;1.08;;;;;;;;;;5050288;28;20045;-72
2022/02/23 00:37:09;;;;;;;4.95;1.27;;;;;;;;;;5050174;28;20036;-72
2022/02/23 00:40:13;;;;;;;2.67;0.85;;;;;;;;;;5049354;28;20036;-72
2022/02/23 00:43:18;;;;;;;5.55;1.17;;;;;;;;;;5050094;28;20037;-72
2022/02/23 00:46:23;;;;;;;2.25;1.20;;;;;;;;;;5050041;28;20040;-72
2022/02/23 00:49:27;;;;;;;3.45;1.00;;;;;;;;;;5053788;28;20378;-72
2022/02/23 00:52:32;;;;;;;4.47;1.55;;;;;;;;;;5053510;28;20041;-72
2022/02/23 00:55:36;;;;;;;3.97;1.20;;;;;;;;;;5053104;28;20025;-72
2022/02/23 00:58:40;;;;;;;4.45;1.23;;;;;;;;;;5053819;28;20374;-72
2022/02/23 01:01:45;;;;;;;4.15;1.00;;;;;;;;;;5053611;28;20037;-72
2022/02/23 01:04:49;;;;;;;2.92;0.93;;;;;;;;;;5053654;28;20045;-72
2022/02/23 01:07:53;;;;;;;5.10;1.92;;;;;;;;;;5052671;28;20037;-72
2022/02/23 01:10:57;;;;;;;3.13;0.82;;;;;;;;;;5052680;28;20049;-72
2022/02/23 01:14:02;;;;;;;3.33;1.23;;;;;;;;;;5052595;28;20504;-72
2022/02/23 01:17:09;;;;;;;4.95;1.30;;;;;;;;;;5053414;28;20045;-72
2022/02/23 01:20:13;;;;;;;2.47;1.00;;;;;;;;;;5052682;28;20037;-72
2022/02/23 01:23:17;;;;;;;3.35;1.10;;;;;;;;;;5053387;28;20041;-72
2022/02/23 01:26:22;;;;;;;8.30;1.92;;;;;;;;;;5052425;28;20032;-72
2022/02/23 01:29:26;;;;;;;8.05;2.22;;;;;;;;;;5052227;28;20032;-72
2022/02/23 01:32:30;;;;;;;6.60;1.20;;;;;;;;;;5052905;28;20053;-72
2022/02/23 01:35:35;;;;;;;7.15;1.45;;;;;;;;;;5053225;28;20032;-72
2022/02/23 01:38:39;;;;;;;5.90;1.42;;;;;;;;;;5052783;28;20037;-72
2022/02/23 01:41:44;;;;;;;9.90;1.27;;;;;;;;;;5052787;28;20366;-72
2022/02/23 01:44:48;;;;;;;9.73;1.40;;;;;;;;;;5053080;28;20041;-72
2022/02/23 01:47:52;;;;;;;6.57;1.77;;;;;;;;;;5052835;28;20481;-72
2022/02/23 01:50:57;;;;;;;7.40;1.73;;;;;;;;;;5052635;28;20049;-73
2022/02/23 01:54:01;;;;;;;4.22;1.35;;;;;;;;;;5052889;28;20041;-73
2022/02/23 01:57:06;;;;;;;6.60;1.35;;;;;;;;;;5052812;28;20037;-72
2022/02/23 02:00:12;;;;;;;4.88;1.52;;;;;;;;;;5052791;28;20041;-72
2022/02/23 02:03:16;;;;;;;4.05;1.00;;;;;;;;;;5052769;28;20469;-72
2022/02/23 02:06:21;;;;;;;5.25;0.95;;;;;;;;;;5052258;28;20078;-72
2022/02/23 02:09:25;;;;;;;2.38;1.00;;;;;;;;;;5052653;28;20037;-73
2022/02/23 02:12:29;;;;;;;4.63;1.27;;;;;;;;;;5052234;28;20481;-72
2022/02/23 02:15:34;;;;;;;7.13;1.13;;;;;;;;;;5052305;28;20347;-72
2022/02/23 02:18:38;;;;;;;6.15;1.35;;;;;;;;;;5051677;28;20049;-72
2022/02/23 02:22:01;;;;;;;4.75;1.40;;;;;;;;;;5052327;28;20041;-72
2022/02/23 02:25:06;;;;;;;3.78;1.20;;;;;;;;;;5052306;28;20048;-72
2022/02/23 02:28:10;;;;;;;4.50;1.27;;;;;;;;;;5051537;28;20357;-72
2022/02/23 02:31:14;;;;;;;4.35;1.58;;;;;;;;;;5052281;28;20048;-73
2022/02/23 02:34:19;;;;;;;5.00;1.38;;;;;;;;;;5051942;28;20032;-72
2022/02/23 02:37:24;;;;;;;7.68;1.30;;;;;;;;;;5051834;28;20188;-73
2022/02/23 02:40:28;;;;;;;3.13;1.23;;;;;;;;;;5051783;28;20033;-72
2022/02/23 02:43:32;;;;;;;5.75;1.30;;;;;;;;;;5051590;28;20040;-73
2022/02/23 02:46:37;;;;;;;4.07;1.13;;;;;;;;;;5051555;28;20037;-72
2022/02/23 02:49:41;;;;;;;5.97;1.70;;;;;;;;;;5050828;28;20036;-72
2022/02/23 02:52:45;;;;;;;3.30;1.45;;;;;;;;;;5051654;28;20504;-72
2022/02/23 02:55:49;;;;;;;4.18;1.30;;;;;;;;;;5051688;28;20037;-73
2022/02/23 02:58:54;;;;;;;3.28;1.05;;;;;;;;;;5051895;28;20048;-73
2022/02/23 03:01:59;;;;;;;7.43;1.40;;;;;;;;;;5051490;28;20044;-73
2022/02/23 03:05:04;;;;;;;3.45;1.30;;;;;;;;;;5051616;28;20033;-73
2022/02/23 03:08:08;;;;;;;12.20;1.48;;;;;;;;;;5050479;28;20482;-74
2022/02/23 03:11:13;;;;;;;4.35;1.42;;;;;;;;;;5050680;28;20045;-73
2022/02/23 03:14:18;;;;;;;5.75;1.27;;;;;;;;;;5051687;28;20493;-74
2022/02/23 03:17:22;;;;;;;5.82;1.50;;;;;;;;;;5050584;28;20045;-74
2022/02/23 03:20:26;;;;;;;10.65;3.40;;;;;;;;;;5051364;28;20036;-74
2022/02/23 03:23:31;;;;;;;8.85;2.47;;;;;;;;;;5051387;28;20400;-73
2022/02/23 03:26:35;;;;;;;9.23;2.33;;;;;;;;;;5051155;28;20041;-74
2022/02/23 03:29:39;;;;;;;8.18;1.85;;;;;;;;;;5051280;28;20045;-74
2022/02/23 03:32:44;;;;;;;4.88;1.90;;;;;;;;;;5051006;28;20484;-73
2022/02/23 03:35:48;;;;;;;6.88;1.98;;;;;;;;;;5050931;28;20041;-73
2022/02/23 03:38:52;;;;;;;7.22;1.90;;;;;;;;;;5051564;28;20477;-73
2022/02/23 03:41:57;;;;;;;8.95;2.30;;;;;;;;;;5051222;28;20041;-74
2022/02/23 03:45:02;;;;;;;4.80;1.85;;;;;;;;;;5050382;28;20037;-73
2022/02/23 03:48:06;;;;;;;8.00;2.33;;;;;;;;;;5051122;28;20029;-74
2022/02/23 03:51:10;;;;;;;8.43;2.03;;;;;;;;;;5051088;28;20488;-73
2022/02/23 03:54:15;;;;;;;9.45;2.15;;;;;;;;;;5050949;28;20369;-73
2022/02/23 03:57:19;;;;;;;8.43;2.20;;;;;;;;;;5051125;28;20037;-73
2022/02/23 04:00:24;;;;;;;6.15;1.92;;;;;;;;;;5050854;28;20045;-73
2022/02/23 04:03:28;;;;;;;4.38;2.20;;;;;;;;;;5050715;28;20041;-73
2022/02/23 04:06:33;;;;;;;6.88;1.98;;;;;;;;;;5050625;28;20033;-73
2022/02/23 04:09:37;;;;;;;3.50;2.20;;;;;;;;;;5050778;28;20045;-73
2022/02/23 04:12:41;;;;;;;4.43;1.90;;;;;;;;;;5050729;28;20045;-73
2022/02/23 04:15:46;;;;;;;6.97;2.08;;;;;;;;;;5050944;28;20037;-73
2022/02/23 04:18:51;;;;;;;4.15;1.77;;;;;;;;;;5049994;28;20493;-73
2022/02/23 04:21:55;;;;;;;6.60;2.00;;;;;;;;;;5050979;28;20037;-73
2022/02/23 04:24:59;;;;;;;9.52;4.20;;;;;;;;;;5054673;28;20378;-72
2022/02/23 04:28:04;;;;;;;8.02;3.30;;;;;;;;;;5054112;28;20033;-73
2022/02/23 04:31:08;;;;;;;4.50;2.42;;;;;;;;;;5054354;28;20481;-70
2022/02/23 04:34:12;;;;;;;6.80;2.05;;;;;;;;;;5054479;28;20037;-71
2022/02/23 04:37:16;;;;;;;4.30;1.67;;;;;;;;;;5053191;28;20025;-71
2022/02/23 04:40:21;;;;;;;8.30;2.22;;;;;;;;;;5053999;28;20037;-71
2022/02/23 04:43:25;;;;;;;3.63;1.40;;;;;;;;;;5053454;28;20476;-71
2022/02/23 04:46:29;;;;;;;5.32;1.20;;;;;;;;;;5053961;28;20140;-72
2022/02/23 04:49:34;;;;;;;4.10;1.30;;;;;;;;;;5052809;28;20040;-72
2022/02/23 04:52:40;;;;;;;13.02;1.42;;;;;;;;;;5053741;28;20049;-73
2022/02/23 04:55:45;;;;;;;1.73;0.80;;;;;;;;;;5053699;28;20050;-72
2022/02/23 04:58:49;;;;;;;2.65;0.60;;;;;;;;;;5041162;28;20377;-71
2022/02/23 05:01:54;;;;;;;2.33;0.70;;;;;;;;;;5053613;28;20037;-73
2022/02/23 05:04:58;;;;;;;2.08;0.90;;;;;;;;;;5052661;28;20040;-75
2022/02/23 05:08:03;;;;;;;4.78;0.90;;;;;;;;;;5053214;28;20390;-71
2022/02/23 05:11:07;;;;;;;2.97;0.82;;;;;;;;;;5052567;28;20040;-71
2022/02/23 05:14:11;;;;;;;5.18;1.00;;;;;;;;;;5053631;28;20049;-72
2022/02/23 05:17:16;;;;;;;2.13;1.10;;;;;;;;;;5052343;28;20068;-72
2022/02/23 05:20:21;;;;;;;4.22;1.48;;;;;;;;;;5053231;28;20037;-72
2022/02/23 05:23:25;;;;;;;2.03;0.90;;;;;;;;;;5040948;28;20032;-72
2022/02/23 05:26:29;;;;;;;3.25;1.30;;;;;;;;;;5052330;28;20029;-72
2022/02/23 05:29:34;;;;;;;2.60;1.30;;;;;;;;;;5053147;28;20037;-72
2022/02/23 05:32:39;;;;;;;5.75;1.65;;;;;;;;;;5052841;28;20040;-72
2022/02/23 05:35:45;;;;;;;2.70;1.25;;;;;;;;;;5051685;28;20045;-72
2022/02/23 05:38:49;;;;;;;3.42;0.70;;;;;;;;;;5051961;28;20036;-71
2022/02/23 05:41:53;;;;;;;4.20;0.90;;;;;;;;;;5052034;28;20053;-71
2022/02/23 05:44:57;;;;;;;3.05;0.90;;;;;;;;;;5052547;28;20026;-71
2022/02/23 05:48:02;;;;;;;2.58;0.98;;;;;;;;;;5052481;28;20492;-72
2022/02/23 05:51:23;;;;;;;2.10;0.68;;;;;;;;;;5051349;28;20041;-71
2022/02/23 05:54:30;;;;;;;10.13;1.13;;;;;;;;;;5052758;28;20045;-72
2022/02/23 05:57:35;;;;;;;24.00;15.32;;;;;;;;;;5052466;28;20195;-70
2022/02/23 06:00:39;;;;;;;3.83;0.95;;;;;;;;;;5052372;28;20554;-72
2022/02/23 06:03:43;;;;;;;16.00;1.17;;;;;;;;;;5052281;28;20441;-73
2022/02/23 06:06:48;;;;;;;5.97;1.00;;;;;;;;;;5052242;28;20504;-73
2022/02/23 06:09:52;;;;;;;4.47;0.90;;;;;;;;;;5052363;28;20041;-73
2022/02/23 06:12:57;;;;;;;3.85;1.83;;;;;;;;;;5051124;28;20049;-73
2022/02/23 06:16:01;;;;;;;9.13;1.60;;;;;;;;;;5051986;28;20036;-73
2022/02/23 06:19:06;;;;;;;4.07;1.10;;;;;;;;;;5052180;28;20373;-73
2022/02/23 06:22:10;;;;;;;3.78;0.95;;;;;;;;;;5051200;28;20037;-73
2022/02/23 06:25:15;;;;;;;3.88;1.45;;;;;;;;;;5051113;28;20041;-73
2022/02/23 06:28:19;;;;;;;1.95;0.70;;;;;;;;;;5051799;28;20041;-74
2022/02/23 06:31:24;;;;;;;2.88;1.13;;;;;;;;;;5051766;28;20355;-72
2022/02/23 06:34:28;;;;;;;3.38;1.13;;;;;;;;;;5050922;28;20033;-71
2022/02/23 06:37:33;;;;;;;13.02;2.70;;;;;;;;;;5050852;28;20041;-72
2022/02/23 06:40:37;;;;;;;8.75;3.10;;;;;;;;;;5050784;28;20033;-73
2022/02/23 06:43:43;;;;;;;5.88;1.88;;;;;;;;;;5050621;28;20037;-73
2022/02/23 06:46:48;;;;;;;3.95;1.05;;;;;;;;;;5050703;28;20033;-73
2022/02/23 06:49:53;;;;;;;9.95;2.15;;;;;;;;;;5050541;28;20398;-75
2022/02/23 06:52:57;;;;;;;4.07;1.33;;;;;;;;;;5050200;28;20041;-73
2022/02/23 06:56:01;;;;;;;3.05;1.20;;;;;;;;;;5050461;28;20044;-73
2022/02/23 06:59:06;;;;;;;3.55;1.02;;;;;;;;;;5051259;28;20477;-73
2022/02/23 07:02:10;;;;;;;3.08;0.80;;;;;;;;;;5051386;28;20040;-73
2022/02/23 07:05:15;;;;;;;11.43;1.77;;;;;;;;;;5051273;28;20041;-73
2022/02/23 07:08:20;;;;;;;3.40;0.80;;;;;;;;;;5051123;28;20037;-73
2022/02/23 07:11:25;;;;;;;6.68;1.10;;;;;;;;;;5050725;28;20033;-73
2022/02/23 07:14:30;;;;;;;8.80;1.50;;;;;;;;;;5051127;28;20045;-73
2022/02/23 07:17:34;;;;;;;2.60;0.90;;;;;;;;;;5050716;28;20040;-73
2022/02/23 07:20:38;;;;;;;3.67;0.85;;;;;;;;;;5051061;28;20036;-76
2022/02/23 07:23:43;;;;;;;4.70;1.30;;;;;;;;;;5050614;28;20041;-78
2022/02/23 07:26:47;;;;;;;4.55;0.70;;;;;;;;;;5049381;28;20037;-77
2022/02/23 07:29:51;;;;;;;2.28;1.00;;;;;;;;;;5050522;28;20295;-77
2022/02/23 07:32:57;;;;;;;7.60;1.08;;;;;;;;;;5050018;28;20500;-77
2022/02/23 07:36:01;;;;;;;4.80;1.30;;;;;;;;;;5050813;28;20036;-77
2022/02/23 07:39:07;;;;;;;3.17;1.20;;;;;;;;;;5050399;28;20045;-75
2022/02/23 07:42:11;;;;;;;2.58;0.93;;;;;;;;;;5050612;28;20481;-77
2022/02/23 07:45:15;;;;;;;5.40;0.90;;;;;;;;;;5050624;28;20037;-76
2022/02/23 07:48:20;;;;;;;21.45;2.80;;;;;;;;;;5049907;28;20037;-77
2022/02/23 07:51:25;;;;;;;4.60;1.02;;;;;;;;;;5050490;28;20044;-82
2022/02/23 07:54:29;;;;;;;2.40;0.95;;;;;;;;;;5050782;28;20041;-79
2022/02/23 07:57:34;;;;;;;6.47;1.08;;;;;;;;;;5055087;28;20045;-84
2022/02/23 08:00:39;;;;;;;5.35;1.15;;;;;;;;;;5056619;28;20041;-76
2022/02/23 08:03:46;;;;;;;3.05;0.88;;;;;;;;;;5057271;28;20045;-82
2022/02/23 08:06:51;;;;;;;5.85;1.25;;;;;;;;;;5056547;28;20044;-83
2022/02/23 08:09:55;;;;;;;4.05;0.93;;;;;;;;;;5056509;28;20037;-83
2022/02/23 08:13:02;;;;;;;2.92;0.90;;;;;;;;;;5056016;28;20052;-79
2022/02/23 08:19:35;;;;;;;5.55;0.80;;;;;;;;;;5057050;28;20033;-77
2022/02/23 08:22:39;;;;;;;4.40;1.10;;;;;;;;;;5055669;28;20040;-82
2022/02/23 08:25:44;;;;;;;3.33;1.10;;;;;;;;;;5056229;28;20049;-81
2022/02/23 08:28:49;;;;;;;3.50;1.10;;;;;;;;;;5055938;28;20386;-83
2022/02/23 08:31:53;;;;;;;5.00;1.10;;;;;;;;;;5056274;28;20036;-81
2022/02/23 08:34:58;;;;;;;5.95;1.17;;;;;;;;;;5055804;28;20381;-80
2022/02/23 08:38:02;;;;;;;2.50;0.90;;;;;;;;;;5057813;28;20473;-80
2022/02/23 08:41:07;;;;;;;2.42;0.88;;;;;;;;;;5056922;28;20500;-81
2022/02/23 08:44:12;;;;;;;6.57;1.95;;;;;;;;;;5057021;28;20366;-80
2022/02/23 08:47:17;;;;;;;3.70;1.10;;;;;;;;;;5056626;28;20045;-82
2022/02/23 08:50:21;;;;;;;5.50;1.10;;;;;;;;;;5056715;28;20048;-80
2022/02/23 08:53:27;;;;;;;5.70;1.08;;;;;;;;;;5056412;28;20056;-78
2022/02/23 08:56:32;;;;;;;4.05;1.05;;;;;;;;;;5056578;28;20037;-81
2022/02/23 08:59:37;;;;;;;6.38;1.00;;;;;;;;;;5055931;28;20037;-83
2022/02/23 09:02:41;;;;;;;2.88;1.13;;;;;;;;;;5056563;28;20037;-79
2022/02/23 09:05:45;;;;;;;5.38;1.25;;;;;;;;;;5055638;28;20049;-84
2022/02/23 09:08:51;;;;;;;3.45;1.30;;;;;;;;;;5053944;28;20033;-83
2022/02/23 09:11:55;;;;;;;4.18;1.10;;;;;;;;;;5052463;28;20036;-80
2022/02/23 09:14:59;;;;;;;4.50;1.23;;;;;;;;;;5053436;28;20033;-83
2022/02/23 09:18:23;;;;;;;4.82;1.45;;;;;;;;;;5052400;28;20025;-81
2022/02/23 09:21:27;;;;;;;7.97;1.10;;;;;;;;;;5053423;28;20036;-81
2022/02/23 09:24:32;;;;;;;2.00;0.98;;;;;;;;;;5053787;28;20033;-80
2022/02/23 09:27:36;;;;;;;4.47;1.00;;;;;;;;;;5053157;28;20045;-83
2022/02/23 09:30:41;;;;;;;3.22;1.20;;;;;;;;;;5051788;28;20037;-85
2022/02/23 09:33:45;;;;;;;5.40;1.50;;;;;;;;;;5052651;28;20044;-82
2022/02/23 09:36:52;;;;;;;2.60;1.05;;;;;;;;;;5040232;28;20041;-84
2022/02/23 09:39:57;;;;;;;1.98;0.77;;;;;;;;;;5052406;28;20037;-81
2022/02/23 09:43:01;;;;;;;4.22;1.20;;;;;;;;;;5051893;28;20168;-79
2022/02/23 09:46:08;;;;;;;3.60;1.20;;;;;;;;;;5051885;28;20476;-84
2022/02/23 09:49:13;;;;;;;10.85;1.60;;;;;;;;;;5052070;28;20037;-80
2022/02/23 09:52:21;;;;;;;3.40;1.40;;;;;;;;;;5051864;28;20049;-81
2022/02/23 09:55:27;;;;;;;2.70;1.17;;;;;;;;;;5051630;28;20358;-79
2022/02/23 09:58:31;;;;;;;2.58;1.02;;;;;;;;;;5052371;28;20478;-80
2022/02/23 10:01:36;;;;;;;4.03;0.90;;;;;;;;;;5052769;28;20461;-83
2022/02/23 10:04:40;;;;;;;7.18;1.42;;;;;;;;;;5052146;28;20033;-81
2022/02/23 10:07:45;;;;;;;4.93;0.90;;;;;;;;;;5052509;28;20037;-78
2022/02/23 10:10:52;;;;;;;2.05;0.98;;;;;;;;;;5051949;28;20033;-79
2022/02/23 10:13:57;;;;;;;4.93;1.83;;;;;;;;;;5051454;28;20044;-84
2022/02/23 10:17:01;;;;;;;2.20;0.93;;;;;;;;;;5052027;28;20220;-82
2022/02/23 10:20:21;;;;;;;1.83;0.88;;;;;;;;;;5051437;28;20045;-85
2022/02/23 10:23:28;;;;;;;3.05;1.48;;;;;;;;;;5052000;28;20481;-82
2022/02/23 10:26:32;;;;;;;1.67;0.90;;;;;;;;;;5051864;28;20484;-79
2022/02/23 10:29:55;;;;;;;3.60;1.02;;;;;;;;;;5051896;28;20052;-80
2022/02/23 10:33:12;;;;;;;4.95;1.10;;;;;;;;;;5051129;28;20057;-77
2022/02/23 10:36:18;;;;;;;1.85;0.95;;;;;;;;;;5051270;28;20044;-81
2022/02/23 10:39:22;;;;;;;2.78;1.20;;;;;;;;;;5052025;28;20033;-78
2022/02/23 10:42:29;;;;;;;7.50;1.10;;;;;;;;;;5051490;28;20045;-80
2022/02/23 10:45:34;;;;;;;3.72;0.93;;;;;;;;;;5051587;28;20036;-83
2022/02/23 10:48:40;;;;;;;13.40;1.40;;;;;;;;;;5051113;28;20037;-82
2022/02/23 10:51:45;;;;;;;6.10;1.42;;;;;;;;;;5049651;28;20052;-83
2022/02/23 10:54:50;;;;;;;3.55;0.93;;;;;;;;;;5051227;28;20378;-81
2022/02/23 10:57:56;;;;;;;3.53;0.85;;;;;;;;;;5051666;28;20064;-89
2022/02/23 11:01:04;;;;;;;2.88;0.80;;;;;;;;;;5051254;28;20041;-81
2022/02/23 11:04:08;;;;;;;3.28;0.80;;;;;;;;;;5050232;28;20036;-80
2022/02/23 11:07:12;;;;;;;3.78;1.00;;;;;;;;;;5051159;28;20048;-81
2022/02/23 11:10:18;;;;;;;3.35;0.85;;;;;;;;;;5051363;28;20037;-83
2022/02/23 11:13:22;;;;;;;2.08;0.90;;;;;;;;;;5051159;28;20044;-81
2022/02/23 11:16:27;;;;;;;3.55;0.70;;;;;;;;;;5050818;28;20413;-78
2022/02/23 11:19:32;;;;;;;5.43;0.93;;;;;;;;;;5051148;28;20048;-81
2022/02/23 11:22:36;;;;;;;3.17;0.88;;;;;;;;;;5050172;28;20033;-78
2022/02/23 11:25:41;;;;;;;1.50;0.80;;;;;;;;;;5050698;28;20045;-75
2022/02/23 11:28:49;;;;;;;2.75;0.80;;;;;;;;;;5050846;28;20036;-82
2022/02/23 11:31:55;;;;;;;1.35;0.80;;;;;;;;;;5049965;28;20044;-77
2022/02/23 11:34:59;;;;;;;2.55;1.17;;;;;;;;;;5050688;28;20485;-81
2022/02/23 11:38:04;;;;;;;1.67;0.70;;;;;;;;;;5050067;28;20217;-76
2022/02/23 11:41:21;;;;;;;5.95;1.13;;;;;;;;;;5050131;28;20033;-76
2022/02/23 11:44:27;;;;;;;2.17;0.73;;;;;;;;;;5050691;28;20033;-82
2022/02/23 11:47:31;;;;;;;3.17;0.85;;;;;;;;;;5050093;28;20036;-78
2022/02/23 11:50:36;;;;;;;3.40;1.30;;;;;;;;;;5050453;28;20049;-77
2022/02/23 11:53:41;;;;;;;4.72;0.70;;;;;;;;;;5050908;28;20045;-78
2022/02/23 11:56:49;;;;;;;3.13;1.15;;;;;;;;;;5051306;28;20037;-86
2022/02/23 11:59:54;;;;;;;4.47;1.00;;;;;;;;;;5050229;28;20045;-85
2022/02/23 12:03:31;;;;;;;3.90;0.90;;;;;;;;;;5049974;28;20576;-85
2022/02/23 12:06:53;;;;;;;5.88;0.95;;;;;;;;;;5049681;28;20064;-87
2022/02/23 12:09:57;;;;;;;2.10;0.77;;;;;;;;;;5038701;28;20041;-86
2022/02/23 12:13:02;;;;;;;5.43;1.20;;;;;;;;;;5051119;28;20049;-83
2022/02/23 12:16:22;;;;;;;2.75;0.80;;;;;;;;;;5050461;28;20033;-86
2022/02/23 12:19:42;;;;;;;2.40;0.93;;;;;;;;;;5051172;28;20045;-85
2022/02/23 12:23:08;;;;;;;4.28;1.10;;;;;;;;;;5051007;28;20484;-84
2022/02/23 12:26:14;;;;;;;15.77;2.50;;;;;;;;;;5050511;28;20036;-84
2022/02/23 12:29:18;;;;;;;4.50;1.25;;;;;;;;;;5050925;28;20037;-85
2022/02/23 12:32:26;;;;;;;6.15;1.45;;;;;;;;;;5050835;28;20036;-84
2022/02/23 12:35:36;;;;;;;2.30;1.05;;;;;;;;;;5050430;28;20477;-86
2022/02/23 12:38:46;;;;;;;4.30;0.80;;;;;;;;;;5050281;28;20036;-81
2022/02/23 12:42:01;;;;;;;2.83;1.00;;;;;;;;;;5049948;28;20040;-81
2022/02/23 12:45:06;;;;;;;1.63;0.65;;;;;;;;;;5053609;28;20044;-82
2022/02/23 12:48:12;;;;;;;6.53;1.17;;;;;;;;;;5054314;28;20041;-81
2022/02/23 12:51:19;;;;;;;2.00;0.80;;;;;;;;;;5054024;28;20037;-82
2022/02/23 12:54:25;;;;;;;1.33;0.80;;;;;;;;;;5054142;28;20052;-83
2022/02/23 12:57:29;;;;;;;8.43;1.40;;;;;;;;;;5054065;28;20037;-83
2022/02/23 13:00:34;;;;;;;1.33;0.60;;;;;;;;;;5054123;28;20041;-84
2022/02/23 13:03:38;;;;;;;2.10;0.80;;;;;;;;;;5054701;28;20033;-86
2022/02/23 13:06:46;;;;;;;4.55;0.70;;;;;;;;;;5054229;28;20041;-86
2022/02/23 13:09:51;;;;;;;2.85;0.90;;;;;;;;;;5053914;28;20033;-85
2022/02/23 13:12:56;;;;;;;5.53;0.90;;;;;;;;;;5052744;28;20382;-86
2022/02/23 13:16:00;;;;;;;1.45;0.80;;;;;;;;;;5054478;28;20037;-87
2022/02/23 13:19:07;;;;;;;5.72;0.80;;;;;;;;;;5052304;28;20049;-81
2022/02/23 13:22:13;;;;;;;1.63;0.70;;;;;;;;;;5053380;28;20033;-80
2022/02/23 13:25:20;;;;;;;6.75;1.00;;;;;;;;;;5053210;28;20139;-80
2022/02/23 13:28:25;;;;;;;2.25;0.90;;;;;;;;;;5053409;28;20040;-81
2022/02/23 13:31:34;;;;;;;2.78;0.70;;;;;;;;;;5052178;28;20160;-79
2022/02/23 13:34:39;;;;;;;2.38;0.80;;;;;;;;;;5053002;28;20354;-78
2022/02/23 13:37:46;;;;;;;10.45;1.10;;;;;;;;;;5052250;28;20037;-79
2022/02/23 13:40:51;;;;;;;3.78;0.98;;;;;;;;;;5053070;28;20041;-80
2022/02/23 13:43:55;;;;;;;2.28;0.90;;;;;;;;;;5051983;28;20033;-81
2022/02/23 13:47:01;;;;;;;2.58;0.80;;;;;;;;;;5051926;28;20493;-83
2022/02/23 13:50:09;;;;;;;6.05;0.68;;;;;;;;;;5051489;28;20037;-78
2022/02/23 13:53:16;;;;;;;3.08;0.90;;;;;;;;;;5052688;28;20041;-85
2022/02/23 13:56:23;;;;;;;4.72;0.95;;;;;;;;;;5052201;28;20041;-80
2022/02/23 13:59:27;;;;;;;4.05;1.00;;;;;;;;;;5052455;28;20037;-82
2022/02/23 14:02:34;;;;;;;8.07;1.08;;;;;;;;;;5051338;28;20029;-79
2022/02/23 14:05:39;;;;;;;5.53;1.00;;;;;;;;;;5056484;28;20037;-78
2022/02/23 14:08:45;;;;;;;7.97;1.20;;;;;;;;;;5052564;28;20037;-78
2022/02/23 14:11:50;;;;;;;5.00;1.05;;;;;;;;;;5052421;28;20029;-81
2022/02/23 14:14:54;;;;;;;3.03;1.63;;;;;;;;;;5052333;28;20049;-79
2022/02/23 14:18:17;;;;;;;4.00;2.15;;;;;;;;;;5052846;28;20382;-85
2022/02/23 14:21:24;;;;;;;2.30;1.10;;;;;;;;;;5052199;28;20493;-80
2022/02/23 14:24:29;;;;;;;6.20;0.98;;;;;;;;;;5052176;28;20032;-83
2022/02/23 14:27:35;;;;;;;1.98;0.80;;;;;;;;;;5052565;28;20045;-80
2022/02/23 14:30:39;;;;;;;2.72;0.82;;;;;;;;;;5052454;28;20037;-85
2022/02/23 14:33:43;;;;;;;2.67;1.05;;;;;;;;;;5051921;28;20056;-87
2022/02/23 14:36:48;;;;;;;4.60;1.15;;;;;;;;;;5052490;28;20370;-85
2022/02/23 14:39:53;;;;;;;2.70;1.02;;;;;;;;;;5053246;28;20037;-81
2022/02/23 14:42:57;;;;;;;1.52;1.10;;;;;;;;;;5050809;28;20041;-83
2022/02/23 14:46:02;;;;;;;3.47;1.75;;;;;;;;;;5051598;28;20037;-83
2022/02/23 14:49:06;;;;;;;3.17;2.00;;;;;;;;;;5052658;28;20045;-81
2022/02/23 14:52:11;;;;;;;5.05;2.78;;;;;;;;;;5051837;28;20080;-84
2022/02/23 14:55:15;;;;;;;3.40;1.30;;;;;;;;;;5050854;28;20260;-79
2022/02/23 14:58:19;;;;;;;2.10;1.50;;;;;;;;;;5050857;28;20029;-81
2022/02/23 15:01:24;;;;;;;2.38;1.00;;;;;;;;;;5051574;28;20041;-79
2022/02/23 15:04:29;;;;;;;1.75;0.80;;;;;;;;;;5051672;28;20029;-82
2022/02/23 15:07:33;;;;;;;3.92;0.90;;;;;;;;;;5051125;28;20032;-80
2022/02/23 15:10:38;;;;;;;1.75;1.02;;;;;;;;;;5051120;28;20037;-82
2022/02/23 15:13:43;;;;;;;3.40;1.20;;;;;;;;;;5051257;28;20053;-79
2022/02/23 15:16:48;;;;;;;2.25;1.15;;;;;;;;;;5050918;28;20036;-81
2022/02/23 15:19:52;;;;;;;6.90;1.20;;;;;;;;;;5051283;28;20041;-84
2022/02/23 15:22:57;;;;;;;1.48;0.98;;;;;;;;;;5051242;28;20041;-82
2022/02/23 15:26:01;;;;;;;4.43;1.13;;;;;;;;;;5050834;28;20280;-83
2022/02/23 15:29:05;;;;;;;2.42;1.00;;;;;;;;;;5050524;28;20033;-83
2022/02/23 15:32:10;;;;;;;4.85;1.20;;;;;;;;;;5051101;28;20044;-83
2022/02/23 15:35:14;;;;;;;1.77;1.10;;;;;;;;;;5050976;28;20045;-81
2022/02/23 15:38:18;;;;;;;2.13;1.10;;;;;;;;;;5051142;28;20036;-83
2022/02/23 15:41:23;;;;;;;3.33;1.20;;;;;;;;;;5050584;28;20045;-81
2022/02/23 15:44:27;;;;;;;8.38;1.52;;;;;;;;;;5050634;28;20037;-82
2022/02/23 15:47:32;;;;;;;2.25;1.30;;;;;;;;;;5050849;28;20040;-85
2022/02/23 15:50:36;;;;;;;1.88;1.10;;;;;;;;;;5050903;28;20224;-84
2022/02/23 15:53:40;;;;;;;4.63;1.60;;;;;;;;;;5051165;28;20480;-84
2022/02/23 15:56:45;;;;;;;1.90;1.10;;;;;;;;;;5050818;28;20381;-82
2022/02/23 15:59:49;;;;;;;2.13;1.08;;;;;;;;;;5050455;28;20045;-82
2022/02/23 16:02:54;;;;;;;2.33;1.30;;;;;;;;;;5050628;28;20036;-83
2022/02/23 16:05:58;;;;;;;5.18;1.80;;;;;;;;;;5049913;28;20385;-85
2022/02/23 16:09:03;;;;;;;1.58;1.13;;;;;;;;;;5050838;28;20049;-84
2022/02/23 16:12:07;;;;;;;3.05;1.33;;;;;;;;;;5050751;28;20037;-83
2022/02/23 16:15:12;;;;;;;3.92;1.50;;;;;;;;;;5049680;28;20045;-81
2022/02/23 16:18:16;;;;;;;3.67;2.20;;;;;;;;;;5051835;28;20049;-80
2022/02/23 16:21:22;;;;;;;6.65;1.38;;;;;;;;;;5054402;28;20041;-80
2022/02/23 16:24:28;;;;;;;4.35;1.63;;;;;;;;;;5054728;28;20037;-81
2022/02/23 16:27:33;;;;;;;3.25;1.70;;;;;;;;;;5053586;28;20056;-81
2022/02/23 16:30:38;;;;;;;2.28;1.00;;;;;;;;;;5053364;28;20037;-82
2022/02/23 16:33:43;;;;;;;3.47;1.10;;;;;;;;;;5054207;28;20049;-78
2022/02/23 16:36:47;;;;;;;2.67;1.20;;;;;;;;;;5042080;28;20033;-81
2022/02/23 16:39:51;;;;;;;5.22;1.33;;;;;;;;;;5054339;28;20472;-79
2022/02/23 16:42:57;;;;;;;1.98;1.40;;;;;;;;;;5042087;28;20389;-83
2022/02/23 16:46:01;;;;;;;4.55;2.17;;;;;;;;;;5053101;28;20037;-79
2022/02/23 16:49:06;;;;;;;1.85;1.10;;;;;;;;;;5056514;28;20033;-83
2022/02/23 16:52:11;;;;;;;4.75;2.05;;;;;;;;;;5053359;28;20037;-82
2022/02/23 16:55:15;;;;;;;6.70;3.90;;;;;;;;;;5054763;28;20048;-82
2022/02/23 16:58:19;;;;;;;4.68;2.88;;;;;;;;;;5054600;28;20109;-81
2022/02/23 17:01:24;;;;;;;4.00;2.50;;;;;;;;;;5053568;28;20041;-80
2022/02/23 17:04:28;;;;;;;4.32;1.80;;;;;;;;;;5056299;28;20037;-84
2022/02/23 17:07:33;;;;;;;4.43;1.92;;;;;;;;;;5062331;28;20041;-85
2022/02/23 17:10:38;;;;;;;2.65;1.40;;;;;;;;;;5054232;28;20477;-81
2022/02/23 17:13:42;;;;;;;3.25;1.90;;;;;;;;;;5057114;28;20040;-81
2022/02/23 17:16:46;;;;;;;4.57;2.08;;;;;;;;;;5053967;28;20041;-83
2022/02/23 17:19:50;;;;;;;3.75;2.33;;;;;;;;;;5053680;28;20045;-83
2022/02/23 17:22:55;;;;;;;2.88;1.90;;;;;;;;;;5053452;28;20036;-84
2022/02/23 17:26:01;;;;;;;6.00;4.60;;;;;;;;;;5053480;28;20048;-83
2022/02/23 17:29:06;;;;;;;5.88;3.00;;;;;;;;;;5052814;28;20037;-83
2022/02/23 17:32:12;;;;;;;4.30;3.05;;;;;;;;;;5053364;28;20036;-82
2022/02/23 17:35:16;;;;;;;4.45;3.38;;;;;;;;;;5052002;28;20381;-83
2022/02/23 17:38:24;;;;;;;4.05;3.05;;;;;;;;;;5052422;28;20033;-83
2022/02/23 17:41:28;;;;;;;5.50;3.60;;;;;;;;;;5052795;28;20045;-83
2022/02/23 17:44:33;;;;;;;6.50;2.28;;;;;;;;;;5053249;28;20045;-84
2022/02/23 17:47:37;;;;;;;5.40;3.33;;;;;;;;;;5052130;28;20041;-83
2022/02/23 17:50:41;;;;;;;5.75;2.83;;;;;;;;;;5053135;28;20037;-83
2022/02/23 17:53:46;;;;;;;4.32;3.55;;;;;;;;;;5052821;28;20048;-84
2022/02/23 17:56:50;;;;;;;5.90;3.20;;;;;;;;;;5052623;28;20033;-79
2022/02/23 17:59:55;;;;;;;5.68;3.03;;;;;;;;;;5053305;28;20037;-87
2022/02/23 18:02:59;;;;;;;4.32;3.17;;;;;;;;;;5053522;28;20045;-87
2022/02/23 18:06:04;;;;;;;7.75;4.72;;;;;;;;;;5051565;28;20037;-81
2022/02/23 18:09:09;;;;;;;6.13;4.32;;;;;;;;;;5052791;28;20037;-83
2022/02/23 18:12:14;;;;;;;4.38;2.50;;;;;;;;;;5052547;28;20041;-86
2022/02/23 18:15:18;;;;;;;4.72;2.63;;;;;;;;;;5052448;28;20520;-84
2022/02/23 18:18:23;;;;;;;6.32;3.65;;;;;;;;;;5053640;28;20037;-82
2022/02/23 18:21:27;;;;;;;10.38;5.47;;;;;;;;;;5052582;28;20044;-82
2022/02/23 18:24:31;;;;;;;19.88;8.77;;;;;;;;;;5052000;28;20041;-79
2022/02/23 18:27:36;;;;;;;13.00;8.73;;;;;;;;;;5049978;28;20048;-81
2022/02/23 18:30:40;;;;;;;7.55;4.88;;;;;;;;;;5051270;28;20393;-82
2022/02/23 18:33:45;;;;;;;10.02;6.72;;;;;;;;;;5050121;28;20148;-79